Ayr, NE (68925)

2:41 AM CST on February 14, 2016 (GMT -0600)
Hastings 2.8 SE | | Change Station
CLOSE
Current Station
Personal Weather Station
Location: Hastings, NE
Elevation: 1906 ft
Nearby Weather Stations

Elev 1906 ft 40.56 °N, 98.35 °W | Updated 4 seconds ago

Overcast
Overcast
17.2 °F
Feels Like 6 °F
N
9.0
Wind Variable Wind from SSW
Gusts 16.0 mph

Today
High -- | Low -- °F
--% Chance of Precip.
Yesterday
High -- | Low -- °F
Precip. -- in
Pressure 30.09 in
Visibility 10.0 miles
Clouds Overcast 3800 ft
Windchill 6 °F
Dew Point 12 °F
Humidity 80%
Rainfall 0.00 in
Snow Depth Not available.
7:29 AM 6:07 PM
Waxing Crescent, 39% visible
METAR KHSI 140753Z AUTO 20010G18KT 10SM OVC038 M07/M13 A3000 RMK AO2 SLP190 T10721128
Pressure 30.09 in
Visibility 10.0 miles
Clouds Overcast 3800 ft
Windchill 6 °F
Dew Point 12 °F
Humidity 80%
Rainfall 0.00 in
Snow Depth Not available.
7:29 AM 6:07 PM
Waxing Crescent, 39% visible
METAR KHSI 140753Z AUTO 20010G18KT 10SM OVC038 M07/M13 A3000 RMK AO2 SLP190 T10721128

10-Day Weather Forecast

Almanac

Astronomy

Feb. 14, 2016 Rise Set
Actual Time
Civil Twilight
Nautical Twilight
Astronomical Twilight
Moon
Length of Visible Light
Length of Day
Tomorrow will be .
, % of the Moon is Illuminated

Today's Extremes

State Highs State Lows

Community

WunderPhotos

Upload Photos

1,892,757 photos uploaded!

WunderBlog® & News

Nearby

Air Quality

  Air Quality AQ Index Pollutant
Not available.

Snow Depth

Station Depth Elevation

Earthquake Activity

City Distance Mag. Time & Date
Minimum magnitude displayed is 2.5.

Coastal Water Temperatures

Place Temperature

Stations

Nearby Weather Stations

Station Location Temp. Windchill Dew Point Humidity Wind Precip. Elev Updated Type
                   

Watches & Warnings

There are currently no watches in effect.